Portada
METAR-TAF:

METAR-TAF

Aeroports :

Torí, Itàlia

latitud: 45-13N, longitud: 007-39E, altitud: 301 m

Observació

L'informe es va fer fa 36 minuts, a les 09:50 UTC
Vent 7 kt del Nord/Nord-Oest
Temperatura 8°C
Humitat 100%
Pressió 1013 hPa
Visibilitat: 4000 m
Núvols disperses a una alçada de 800 ft
Cel ennuvolat a una alçada de 2000 ft
plugim

METAR: LIMF 220950Z 34007KT 4000 -DZ SCT008 BKN020 08/08 Q1013

Hora: 11:26 (10:26 UTC)

Pronòstic

L'informe es va fer fa 5 hores i 26 minuts, a les 05:00 UTC
Pronòstic vàlid del 22 a les 06 UTC al 23 a les 06 UTC
Vent 5 kt amb direcció variable
Visibilitat: 4000 m
Cel ennuvolat a una alçada de 1000 ft
Cel cobert a una alçada de 3000 ft
pluja

TAF: LIMF 220500Z 2206/2306 VRB05KT 4000 RA BKN010 OVC030

Observacions i pronòstics meteorològics de més de 4000 aeroports (METAR i TAF).

Les estacions disponibles són els punts grocs i vermells al mapa.

Posi el ratolí al punt desitjat per veure el nom de l'estació.

Feu clic per veure les observacions i els pronòstics meteorològics.

Per canviar el mapa: feu clic els botons verds amb una creu de color negre per apropar; al botó verd amb un guió per allunyar la imatge; o en les fletxes verdes per a mapes adjacents.


METAR-TAF: